Time;durP1;ratioP1;P1;durP2;ratioP2;P2;SDS_P1;SDS_P2;PMS_P1;PMS_P2;Temp;Humidity;BMP_temperature;BMP_pressure;BME280_temperature;BME280_humidity;BME280_pressure;Samples;Min_cycle;Max_cycle;Signal;HPM_P1;HPM_P2
2022/12/27 00:04:23;;;;;;;57.30;29.47;;;7.50;99.90;;;;;;10329097;28;20474;-80
2022/12/27 00:09:24;;;;;;;57.27;31.17;;;7.50;99.90;;;;;;10322836;28;20579;-81
2022/12/27 00:14:24;;;;;;;48.77;25.80;;;7.50;99.90;;;;;;10324474;28;20748;-80
2022/12/27 00:19:25;;;;;;;57.03;27.87;;;7.50;99.90;;;;;;10326660;28;20623;-80
2022/12/27 00:24:26;;;;;;;47.03;23.63;;;7.50;99.90;;;;;;10321879;28;20080;-81
2022/12/27 00:29:26;;;;;;;44.40;24.00;;;7.50;99.90;;;;;;10351784;28;20049;-81
2022/12/27 00:34:27;;;;;;;42.70;21.63;;;7.50;99.90;;;;;;10356347;28;20137;-80
2022/12/27 00:39:27;;;;;;;42.37;22.20;;;7.50;99.90;;;;;;10351971;28;20046;-80
2022/12/27 00:44:28;;;;;;;38.53;20.37;;;7.50;99.90;;;;;;10345595;28;20081;-79
2022/12/27 00:49:28;;;;;;;36.37;18.60;;;7.60;99.90;;;;;;10352577;28;20100;-79
2022/12/27 00:54:29;;;;;;;31.30;17.13;;;7.50;99.90;;;;;;10358479;28;20052;-79
2022/12/27 00:59:30;;;;;;;30.87;15.43;;;7.60;99.90;;;;;;10360463;28;20026;-79
2022/12/27 01:04:30;;;;;;;33.03;17.70;;;7.60;99.90;;;;;;10359929;28;20496;-79
2022/12/27 01:09:31;;;;;;;24.03;13.20;;;7.60;99.90;;;;;;10360816;28;20124;-79
2022/12/27 01:14:31;;;;;;;29.60;16.20;;;7.70;99.90;;;;;;10347657;28;20441;-80
2022/12/27 01:19:35;;;;;;;45.27;23.53;;;7.70;99.90;;;;;;10351718;28;20026;-79
2022/12/27 01:24:35;;;;;;;40.83;20.33;;;7.80;99.90;;;;;;10351851;28;20029;-80
2022/12/27 01:29:36;;;;;;;68.77;30.40;;;7.70;99.90;;;;;;10347104;28;20053;-80
2022/12/27 01:34:36;;;;;;;54.50;23.03;;;7.60;99.90;;;;;;10356215;28;20105;-81
2022/12/27 01:39:37;;;;;;;54.90;24.03;;;7.40;99.90;;;;;;10353871;28;20060;-81
2022/12/27 01:50:06;;;;;;;56.87;26.50;;;7.30;99.90;;;;;;10355410;28;20053;-80
2022/12/27 01:55:41;;;;;;;40.80;20.00;;;7.30;99.90;;;;;;10321504;28;20422;-81
2022/12/27 02:00:43;;;;;;;32.90;17.30;;;7.20;99.90;;;;;;10342671;28;20064;-80
2022/12/27 02:05:44;;;;;;;35.40;17.93;;;7.20;99.90;;;;;;10354024;28;20034;-81
2022/12/27 02:10:45;;;;;;;28.47;15.60;;;7.10;99.90;;;;;;10352064;28;20402;-81
2022/12/27 02:15:46;;;;;;;28.63;15.23;;;7.00;99.90;;;;;;10330847;28;20579;-80
2022/12/27 02:21:22;;;;;;;35.40;19.33;;;7.00;99.90;;;;;;10305962;28;20041;-80
2022/12/27 02:26:46;;;;;;;39.80;23.40;;;7.00;99.90;;;;;;10317311;28;20022;-81
2022/12/27 02:32:04;;;;;;;22.17;10.93;;;7.10;99.90;;;;;;10320724;28;20086;-81
2022/12/27 02:37:09;;;;;;;29.70;15.50;;;7.00;99.90;;;;;;10309942;28;20041;-81
2022/12/27 02:53:03;;;;;;;39.97;18.33;;;7.10;99.90;;;;;;10304792;28;20792;-81
2022/12/27 02:58:32;;;;;;;34.93;16.97;;;7.10;99.90;;;;;;10315406;28;20030;-81
2022/12/27 03:03:51;;;;;;;33.30;17.97;;;7.20;99.90;;;;;;10310133;28;20035;-81
2022/12/27 03:15:53;;;;;;;17.77;9.50;;;7.20;99.90;;;;;;10316725;28;20046;-81
2022/12/27 03:25:28;;;;;;;12.07;7.03;;;6.90;99.90;;;;;;10351182;28;20469;-82
2022/12/27 03:46:44;;;;;;;7.43;3.90;;;6.60;99.90;;;;;;10362448;28;20042;-81
2022/12/27 03:52:07;;;;;;;7.50;3.20;;;6.40;99.90;;;;;;10356891;28;20038;-81
2022/12/27 03:57:17;;;;;;;5.57;3.13;;;6.30;99.90;;;;;;10352198;28;20065;-81
2022/12/27 04:02:17;;;;;;;8.10;4.07;;;6.10;99.90;;;;;;10362247;28;20036;-81
2022/12/27 04:07:18;;;;;;;13.10;4.63;;;6.00;99.90;;;;;;10360711;28;20041;-81
2022/12/27 04:38:54;;;;;;;9.53;4.87;;;5.70;99.90;;;;;;10360415;28;20493;-81
2022/12/27 04:54:55;;;;;;;8.90;4.95;;;5.50;99.90;;;;;;10359621;28;20047;-80
2022/12/27 05:05:15;;;;;;;5.33;3.00;;;5.30;99.90;;;;;;10356469;28;20029;-80
2022/12/27 05:15:35;;;;;;;5.53;2.70;;;5.10;99.90;;;;;;10360391;28;20137;-80
2022/12/27 05:20:35;;;;;;;4.10;2.27;;;5.00;99.90;;;;;;10358130;28;20029;-79
2022/12/27 05:25:41;;;;;;;5.67;1.60;;;4.90;99.90;;;;;;10357897;28;20099;-81
2022/12/27 05:30:43;;;;;;;7.40;2.23;;;4.70;99.90;;;;;;10354305;28;20141;-81
2022/12/27 05:35:44;;;;;;;4.93;2.00;;;4.50;99.90;;;;;;10352282;28;20452;-81
2022/12/27 05:40:44;;;;;;;5.07;1.70;;;4.40;99.90;;;;;;10356718;28;20455;-82
2022/12/27 05:45:45;;;;;;;4.50;1.73;;;4.30;99.90;;;;;;10351872;28;20029;-81
2022/12/27 05:50:45;;;;;;;7.00;2.47;;;4.10;99.90;;;;;;10359852;28;20809;-81
2022/12/27 05:55:57;;;;;;;8.33;2.00;;;3.90;99.90;;;;;;10359977;28;20034;-81
2022/12/27 06:00:58;;;;;;;7.93;2.53;;;3.80;99.90;;;;;;10344826;28;20034;-83
2022/12/27 06:06:00;;;;;;;8.93;1.93;;;3.60;99.90;;;;;;10364526;28;20034;-80
2022/12/27 06:11:09;;;;;;;23.83;3.73;;;3.50;99.90;;;;;;10366532;28;20125;-82
2022/12/27 06:16:11;;;;;;;10.63;2.53;;;3.50;99.90;;;;;;10366945;28;20057;-81
2022/12/27 06:21:14;;;;;;;7.03;2.43;;;3.40;99.90;;;;;;10366062;28;20042;-81
2022/12/27 06:26:26;;;;;;;10.03;2.30;;;3.40;99.90;;;;;;10366252;28;20029;-82
2022/12/27 06:31:27;;;;;;;8.47;2.13;;;3.40;99.90;;;;;;10365772;28;20152;-81
2022/12/27 06:36:31;;;;;;;11.97;2.70;;;3.30;99.90;;;;;;10366505;28;20044;-81
2022/12/27 06:41:31;;;;;;;20.80;2.90;;;3.30;99.90;;;;;;10348151;28;20036;-82
2022/12/27 06:46:32;;;;;;;14.47;3.30;;;3.40;99.90;;;;;;10363384;28;20850;-82
2022/12/27 06:51:33;;;;;;;11.80;2.90;;;3.40;99.90;;;;;;10365370;28;20037;-82
2022/12/27 06:56:33;;;;;;;10.37;3.00;;;3.40;99.90;;;;;;10365356;28;20037;-82
2022/12/27 07:01:34;;;;;;;13.63;3.30;;;3.40;99.90;;;;;;10365272;28;20029;-81
2022/12/27 07:06:36;;;;;;;11.40;3.90;;;3.40;99.90;;;;;;10364466;28;20109;-81
2022/12/27 07:11:36;;;;;;;13.57;4.60;;;3.30;99.90;;;;;;10364455;28;20678;-81
2022/12/27 07:16:37;;;;;;;9.40;3.27;;;3.30;99.90;;;;;;10364586;28;20050;-82
2022/12/27 07:21:38;;;;;;;17.73;5.10;;;3.30;99.90;;;;;;10364537;28;20034;-82
2022/12/27 07:26:38;;;;;;;13.50;5.57;;;3.20;99.90;;;;;;10364689;28;20038;-83
2022/12/27 07:31:39;;;;;;;15.57;5.83;;;3.10;99.90;;;;;;10363513;28;20100;-81
2022/12/27 07:36:40;;;;;;;12.90;5.03;;;3.10;99.90;;;;;;10363908;28;20659;-81
2022/12/27 07:41:40;;;;;;;14.23;5.63;;;3.10;99.90;;;;;;10345853;28;20065;-83
2022/12/27 07:46:41;;;;;;;11.77;6.67;;;3.10;99.90;;;;;;10363777;28;20036;-82
2022/12/27 07:51:41;;;;;;;11.30;5.70;;;3.00;99.90;;;;;;10362676;28;20065;-82
2022/12/27 07:56:42;;;;;;;15.63;5.23;;;3.10;99.90;;;;;;10344885;28;20040;-81
2022/12/27 08:07:17;;;;;;;23.17;6.43;;;3.10;99.90;;;;;;10350102;28;20093;-84
2022/12/27 08:12:17;;;;;;;8.32;3.97;;;3.20;99.90;;;;;;10362927;28;20752;-81
2022/12/27 08:17:21;;;;;;;11.93;5.17;;;3.20;99.90;;;;;;10361723;28;20069;-81
2022/12/27 08:22:23;;;;;;;16.50;5.77;;;3.10;99.90;;;;;;10362454;28;20026;-82
2022/12/27 08:27:24;;;;;;;16.10;4.93;;;3.20;99.90;;;;;;10362265;28;20033;-81
2022/12/27 08:32:24;;;;;;;20.97;6.90;;;3.30;99.90;;;;;;10344232;28;20037;-82
2022/12/27 08:37:25;;;;;;;20.03;5.43;;;3.30;99.90;;;;;;10341512;28;20041;-82
2022/12/27 08:42:25;;;;;;;19.27;5.97;;;3.40;99.90;;;;;;10320945;28;20069;-81
2022/12/27 08:47:26;;;;;;;33.43;10.60;;;3.50;99.90;;;;;;10319970;28;20038;-81
2022/12/27 08:52:26;;;;;;;23.63;9.03;;;3.50;99.90;;;;;;10323120;28;20084;-82
2022/12/27 08:57:27;;;;;;;29.57;9.30;;;3.60;99.90;;;;;;10321682;28;20022;-81
2022/12/27 09:02:27;;;;;;;30.90;11.37;;;3.60;99.90;;;;;;10325024;28;20034;-81
2022/12/27 09:07:28;;;;;;;30.53;11.20;;;3.70;99.90;;;;;;10349196;28;20575;-81
2022/12/27 09:12:31;;;;;;;27.17;9.03;;;3.80;99.90;;;;;;10354303;28;20129;-81
2022/12/27 09:17:32;;;;;;;36.23;13.30;;;4.10;99.90;;;;;;10349843;28;20116;-82
2022/12/27 09:22:33;;;;;;;54.73;22.40;;;4.30;99.90;;;;;;10350572;28;20018;-81
2022/12/27 09:27:37;;;;;;;45.70;17.90;;;4.50;99.90;;;;;;10359390;28;20034;-81
2022/12/27 09:32:38;;;;;;;50.10;17.27;;;4.40;99.90;;;;;;10341143;28;20073;-81
2022/12/27 09:37:38;;;;;;;18.97;5.57;;;4.50;99.90;;;;;;10360173;28;20502;-81
2022/12/27 09:43:01;;;;;;;18.77;6.20;;;4.40;99.90;;;;;;10342600;28;20040;-82
2022/12/27 09:48:09;;;;;;;10.63;3.90;;;4.50;99.90;;;;;;10341832;28;20129;-82
2022/12/27 09:53:19;;;;;;;16.53;4.27;;;4.40;99.90;;;;;;10353345;28;20478;-81
2022/12/27 09:58:26;;;;;;;22.93;7.77;;;4.50;99.90;;;;;;10354291;28;20076;-81
2022/12/27 10:03:28;;;;;;;11.17;3.13;;;4.50;99.90;;;;;;10350745;28;20025;-82
2022/12/27 10:08:49;;;;;;;12.57;5.23;;;4.40;99.90;;;;;;10345701;28;20521;-81
2022/12/27 10:14:00;;;;;;;9.27;3.50;;;4.50;99.90;;;;;;10343554;28;20713;-81
2022/12/27 10:19:22;;;;;;;23.93;9.47;;;4.60;99.90;;;;;;10359298;28;20041;-81
2022/12/27 10:24:36;;;;;;;22.50;5.70;;;4.70;99.90;;;;;;10337945;28;20220;-81
2022/12/27 10:29:37;;;;;;;8.93;3.17;;;4.70;99.90;;;;;;10359256;28;20513;-82
2022/12/27 10:34:38;;;;;;;24.80;6.83;;;4.80;99.90;;;;;;10359222;28;20473;-83
2022/12/27 10:39:39;;;;;;;24.07;8.47;;;4.70;99.90;;;;;;10327990;28;20033;-82
2022/12/27 10:44:40;;;;;;;9.30;4.53;;;4.90;99.90;;;;;;10365360;28;20060;-81
2022/12/27 10:49:57;;;;;;;14.30;4.73;;;5.00;99.90;;;;;;10362771;28;20030;-81
2022/12/27 10:54:58;;;;;;;7.53;2.00;;;5.20;99.90;;;;;;10364960;28;20053;-82
2022/12/27 11:00:22;;;;;;;15.67;5.57;;;5.00;99.90;;;;;;10361091;28;20041;-82
2022/12/27 11:05:28;;;;;;;22.30;7.63;;;4.90;99.90;;;;;;10346404;28;20042;-83
2022/12/27 11:10:32;;;;;;;13.23;5.03;;;4.90;99.90;;;;;;10342182;28;20410;-82
2022/12/27 11:15:39;;;;;;;15.47;4.93;;;5.00;99.90;;;;;;10358260;28;20042;-82
2022/12/27 11:20:47;;;;;;;13.80;4.70;;;4.90;99.90;;;;;;10343145;28;20026;-82
2022/12/27 11:26:03;;;;;;;14.40;4.37;;;4.80;99.90;;;;;;10351769;23;20465;-82
2022/12/27 11:31:08;;;;;;;15.97;5.83;;;5.10;99.90;;;;;;10341397;28;20044;-81
2022/12/27 11:36:11;;;;;;;29.23;10.20;;;5.10;99.90;;;;;;10313947;28;20398;-81
2022/12/27 11:41:29;;;;;;;34.90;12.07;;;5.20;99.90;;;;;;10338022;28;20052;-82
2022/12/27 11:46:44;;;;;;;19.67;9.23;;;5.30;99.90;;;;;;10331940;28;20038;-82
2022/12/27 11:52:23;;;;;;;21.27;8.63;;;5.40;99.90;;;;;;10341716;28;20041;-82
2022/12/27 11:57:30;;;;;;;16.27;6.60;;;5.40;99.90;;;;;;10331897;28;20029;-81
2022/12/27 12:02:55;;;;;;;24.97;9.73;;;5.50;99.90;;;;;;10333608;28;20091;-81
2022/12/27 12:08:02;;;;;;;19.10;7.40;;;5.50;99.90;;;;;;10343610;28;20031;-81
2022/12/27 12:13:28;;;;;;;15.10;5.33;;;5.40;99.90;;;;;;10332336;28;20038;-82
2022/12/27 12:18:40;;;;;;;11.83;4.70;;;5.10;99.90;;;;;;10327105;28;20043;-81
2022/12/27 12:24:18;;;;;;;19.77;8.20;;;5.20;99.90;;;;;;10345558;28;20040;-81
2022/12/27 12:29:37;;;;;;;12.47;4.77;;;5.50;99.90;;;;;;10342136;28;20060;-82
2022/12/27 12:34:40;;;;;;;11.17;4.70;;;5.60;99.90;;;;;;10314179;28;20501;-81
2022/12/27 12:40:02;;;;;;;20.60;8.00;;;5.10;99.90;;;;;;10353305;28;20041;-81
2022/12/27 12:45:22;;;;;;;18.27;7.13;;;5.10;99.90;;;;;;10353447;28;20038;-81
2022/12/27 12:50:26;;;;;;;26.80;10.20;;;5.00;99.90;;;;;;10331675;28;20825;-81
2022/12/27 12:55:32;;;;;;;13.90;6.30;;;4.90;99.90;;;;;;10341872;28;20418;-82
2022/12/27 13:00:48;;;;;;;16.30;7.37;;;4.80;99.90;;;;;;10346041;28;20026;-82
2022/12/27 13:06:38;;;;;;;17.13;6.05;;;4.70;99.90;;;;;;10343967;28;20458;-81
2022/12/27 13:11:56;;;;;;;19.27;8.30;;;4.70;99.90;;;;;;10342293;28;20088;-81
2022/12/27 13:17:06;;;;;;;50.03;18.60;;;4.60;99.90;;;;;;10313487;28;20039;-84
2022/12/27 13:22:16;;;;;;;14.53;5.37;;;4.60;99.90;;;;;;10332486;28;20028;-81
2022/12/27 13:27:48;;;;;;;41.57;18.13;;;4.60;99.90;;;;;;10331710;28;20059;-80
2022/12/27 13:33:00;;;;;;;35.33;16.00;;;4.60;99.90;;;;;;10343000;28;20047;-81
2022/12/27 13:38:38;;;;;;;15.67;7.80;;;4.60;99.90;;;;;;10340712;28;20061;-82
2022/12/27 13:43:49;;;;;;;31.93;14.07;;;4.60;99.90;;;;;;10344247;28;20045;-82
2022/12/27 13:49:11;;;;;;;23.07;10.00;;;4.60;99.90;;;;;;10351877;28;20026;-83
2022/12/27 13:54:33;;;;;;;19.03;8.50;;;4.60;99.90;;;;;;10345507;28;20121;-81
2022/12/27 14:00:04;;;;;;;27.63;11.67;;;4.60;99.90;;;;;;10351658;28;20030;-83
2022/12/27 14:05:36;;;;;;;21.80;10.13;;;4.60;99.90;;;;;;10331885;28;20041;-84
2022/12/27 14:10:54;;;;;;;20.70;10.53;;;4.60;99.90;;;;;;10330669;23;20046;-81
2022/12/27 14:16:14;;;;;;;30.67;13.80;;;4.60;99.90;;;;;;10356131;28;20689;-81
2022/12/27 14:21:45;;;;;;;49.20;21.40;;;4.60;99.90;;;;;;10332635;28;20030;-82
2022/12/27 14:27:05;;;;;;;117.43;42.80;;;4.50;99.90;;;;;;10333973;28;20912;-80
2022/12/27 14:32:32;;;;;;;59.53;25.77;;;4.50;99.90;;;;;;10336497;28;20124;-85
2022/12/27 14:37:51;;;;;;;60.37;26.50;;;4.50;99.90;;;;;;10339527;28;20030;-83
2022/12/27 14:43:26;;;;;;;37.77;15.00;;;4.40;99.90;;;;;;10355147;28;20037;-85
2022/12/27 14:48:45;;;;;;;35.53;16.17;;;4.20;99.90;;;;;;10361725;28;20022;-81
2022/12/27 14:54:10;;;;;;;37.60;17.40;;;4.10;99.90;;;;;;10344096;28;20041;-81
2022/12/27 14:59:43;;;;;;;22.95;10.50;;;3.90;99.90;;;;;;10356615;28;20045;-82
2022/12/27 15:05:13;;;;;;;44.23;19.20;;;3.80;99.90;;;;;;10361154;28;20057;-80
2022/12/27 15:10:13;;;;;;;190.00;79.47;;;3.80;99.90;;;;;;10377095;28;20045;-81
2022/12/27 15:15:44;;;;;;;689.53;422.67;;;3.70;99.90;;;;;;10403077;28;20034;-83
2022/12/27 15:21:00;;;;;;;348.00;228.07;;;3.60;99.90;;;;;;10392105;28;20038;-82
2022/12/27 15:26:26;;;;;;;210.07;138.63;;;3.50;99.90;;;;;;10375994;28;20088;-82
2022/12/27 15:31:45;;;;;;;124.57;75.30;;;3.50;99.90;;;;;;10389440;28;20049;-83
2022/12/27 15:36:48;;;;;;;115.67;64.80;;;3.40;99.90;;;;;;10352697;28;20037;-84
2022/12/27 15:42:04;;;;;;;121.30;61.97;;;3.30;99.90;;;;;;10389746;28;20068;-82
2022/12/27 15:47:27;;;;;;;75.67;43.17;;;3.30;99.90;;;;;;10377345;28;20022;-82
2022/12/27 15:52:54;;;;;;;50.50;21.43;;;3.30;99.90;;;;;;10400204;28;20311;-82
2022/12/27 15:58:02;;;;;;;;;;;3.20;99.90;;;;;;10381273;28;20493;-82
2022/12/27 16:03:28;;;;;;;44.33;19.90;;;3.20;99.90;;;;;;10360884;28;19972;-82
2022/12/27 16:08:33;;;;;;;41.83;18.15;;;3.10;99.90;;;;;;10372810;28;20131;-82
2022/12/27 16:13:45;;;;;;;40.10;16.37;;;3.20;99.90;;;;;;10356237;28;20045;-83
2022/12/27 16:19:00;;;;;;;28.77;13.47;;;3.30;99.90;;;;;;10372537;28;20026;-84
2022/12/27 16:24:09;;;;;;;21.77;9.37;;;3.40;99.90;;;;;;10360959;28;20111;-84
2022/12/27 16:29:15;;;;;;;33.20;13.50;;;3.50;99.90;;;;;;10374777;28;20523;-83
2022/12/27 16:34:26;;;;;;;25.42;12.13;;;3.50;99.90;;;;;;10338176;28;20465;-83
2022/12/27 16:40:10;;;;;;;25.90;10.53;;;3.60;99.90;;;;;;10359095;28;20033;-84
2022/12/27 16:45:36;;;;;;;27.70;11.37;;;3.60;99.90;;;;;;10342223;28;20466;-83
2022/12/27 16:50:40;;;;;;;29.33;12.27;;;3.60;99.90;;;;;;10360187;28;20033;-83
2022/12/27 16:55:54;;;;;;;27.10;12.63;;;3.70;99.90;;;;;;10374303;28;20041;-83
2022/12/27 17:00:56;;;;;;;23.53;11.37;;;3.70;99.90;;;;;;10364745;28;20049;-83
2022/12/27 17:05:59;;;;;;;41.63;18.57;;;3.70;99.90;;;;;;10359682;28;20033;-83
2022/12/27 17:11:22;;;;;;;36.07;14.40;;;3.70;99.90;;;;;;10355054;28;20137;-83
2022/12/27 17:17:00;;;;;;;33.57;13.77;;;3.70;99.90;;;;;;10351082;28;20032;-83
2022/12/27 17:22:03;;;;;;;49.63;17.07;;;3.70;99.90;;;;;;10306943;28;20065;-82
2022/12/27 17:27:43;;;;;;;35.73;13.57;;;3.70;99.90;;;;;;10357780;28;20040;-83
2022/12/27 17:33:11;;;;;;;29.70;13.93;;;3.70;99.90;;;;;;10353162;28;20037;-82
2022/12/27 17:38:20;;;;;;;43.30;15.37;;;3.60;99.90;;;;;;10359526;28;20037;-81
2022/12/27 17:49:08;;;;;;;40.30;16.40;;;3.60;99.90;;;;;;10352511;28;20041;-82
2022/12/27 17:59:45;;;;;;;31.00;13.80;;;3.60;99.90;;;;;;10366146;28;20030;-80
2022/12/27 18:04:49;;;;;;;29.83;13.67;;;3.60;99.90;;;;;;10356264;28;20117;-82
2022/12/27 18:09:55;;;;;;;29.37;12.53;;;3.50;99.90;;;;;;10375533;28;20096;-81
2022/12/27 18:15:04;;;;;;;28.93;12.23;;;3.50;99.90;;;;;;10373376;28;20421;-81
2022/12/27 18:20:27;;;;;;;26.57;12.80;;;3.50;99.90;;;;;;10366585;28;20026;-80
2022/12/27 18:25:32;;;;;;;30.60;13.13;;;3.50;99.90;;;;;;10359985;28;20037;-82
2022/12/27 18:30:40;;;;;;;26.83;11.30;;;3.50;99.90;;;;;;10357231;28;20154;-80
2022/12/27 18:35:50;;;;;;;31.57;12.50;;;3.50;99.90;;;;;;10365212;28;20741;-82
2022/12/27 18:41:03;;;;;;;44.40;16.77;;;3.50;99.90;;;;;;10355833;28;20033;-81
2022/12/27 18:46:04;;;;;;;33.83;15.63;;;3.40;99.90;;;;;;10360422;28;20037;-80
2022/12/27 18:51:04;;;;;;;69.33;26.57;;;3.40;99.90;;;;;;10353097;28;20037;-81
2022/12/27 18:56:23;;;;;;;40.53;18.10;;;3.30;99.90;;;;;;10367729;28;20025;-82
2022/12/27 19:01:38;;;;;;;42.80;20.27;;;3.30;99.90;;;;;;10386345;28;20129;-80
2022/12/27 19:06:41;;;;;;;32.00;14.07;;;3.20;99.90;;;;;;10381304;28;20038;-81
2022/12/27 19:11:51;;;;;;;29.20;14.70;;;3.20;99.90;;;;;;10343816;28;20453;-80
2022/12/27 19:16:55;;;;;;;35.20;15.80;;;3.10;99.90;;;;;;10362957;28;20053;-82
2022/12/27 19:21:57;;;;;;;42.80;19.30;;;3.00;99.90;;;;;;10344752;28;20053;-82
2022/12/27 19:27:14;;;;;;;41.80;18.03;;;3.00;99.90;;;;;;10362899;28;20509;-82
2022/12/27 19:32:19;;;;;;;37.37;16.07;;;3.00;99.90;;;;;;10362715;28;20041;-81
2022/12/27 19:37:24;;;;;;;38.33;16.27;;;2.90;99.90;;;;;;10367873;28;20465;-80
2022/12/27 19:42:31;;;;;;;38.13;15.67;;;2.90;99.90;;;;;;10379884;28;20470;-80
2022/12/27 19:47:33;;;;;;;35.60;16.30;;;2.70;99.90;;;;;;10374304;28;20095;-80
2022/12/27 19:52:34;;;;;;;38.87;16.73;;;2.70;99.90;;;;;;10370510;28;20034;-80
2022/12/27 19:57:34;;;;;;;40.07;18.20;;;2.50;99.90;;;;;;10362557;28;20033;-80
2022/12/27 20:02:35;;;;;;;41.30;18.70;;;2.40;99.90;;;;;;10358045;28;20068;-80
2022/12/27 20:07:36;;;;;;;41.63;18.20;;;2.30;99.90;;;;;;10360232;28;20021;-81
2022/12/27 20:12:37;;;;;;;45.07;21.83;;;2.20;99.90;;;;;;10393286;28;20057;-80
2022/12/27 20:17:37;;;;;;;85.20;35.57;;;2.10;99.90;;;;;;10371015;28;20046;-80
2022/12/27 20:22:38;;;;;;;76.40;31.23;;;2.00;99.90;;;;;;10364766;28;20042;-80
2022/12/27 20:27:38;;;;;;;67.37;27.87;;;2.00;99.90;;;;;;10360838;28;20061;-80
2022/12/27 20:32:39;;;;;;;49.27;25.50;;;2.00;99.90;;;;;;10362159;28;20104;-80
2022/12/27 20:37:46;;;;;;;57.43;26.67;;;2.10;99.90;;;;;;10476269;28;20398;-79
2022/12/27 20:42:47;;;;;;;51.20;24.80;;;2.10;99.90;;;;;;10438546;28;20033;-79
2022/12/27 20:47:48;;;;;;;52.57;23.27;;;2.20;99.90;;;;;;10441480;28;20116;-79
2022/12/27 20:52:49;;;;;;;50.13;24.10;;;2.20;99.90;;;;;;10436141;28;20040;-79
2022/12/27 20:57:49;;;;;;;50.67;22.90;;;2.20;99.90;;;;;;10435691;28;20405;-79
2022/12/27 21:02:50;;;;;;;41.80;19.10;;;2.20;99.90;;;;;;10426159;28;20041;-79
2022/12/27 21:07:50;;;;;;;38.57;19.90;;;2.20;99.90;;;;;;10430828;28;20033;-79
2022/12/27 21:12:51;;;;;;;36.40;18.50;;;2.20;99.90;;;;;;10435218;28;20037;-79
2022/12/27 21:17:51;;;;;;;45.17;22.13;;;2.30;99.90;;;;;;10435016;28;20041;-79
2022/12/27 21:22:52;;;;;;;34.87;19.23;;;2.30;99.90;;;;;;10437754;28;20037;-80
2022/12/27 21:27:52;;;;;;;41.20;20.90;;;2.30;99.90;;;;;;10434388;28;20698;-79
2022/12/27 21:32:53;;;;;;;36.57;19.03;;;2.40;99.90;;;;;;10433636;28;20037;-79
2022/12/27 21:37:54;;;;;;;32.67;16.57;;;2.40;99.90;;;;;;10433551;28;20068;-79
2022/12/27 21:42:54;;;;;;;31.83;16.67;;;2.50;99.90;;;;;;10434689;28;20037;-79
2022/12/27 21:47:55;;;;;;;41.57;18.07;;;2.50;99.90;;;;;;10412406;28;20029;-80
2022/12/27 21:52:55;;;;;;;50.97;20.33;;;2.50;99.90;;;;;;10406422;28;20052;-79
2022/12/27 21:57:56;;;;;;;50.50;21.87;;;2.50;99.90;;;;;;10406379;28;20040;-79
2022/12/27 22:02:57;;;;;;;43.70;19.80;;;2.50;99.90;;;;;;10405371;28;20047;-79
2022/12/27 22:07:57;;;;;;;42.03;19.53;;;2.50;99.90;;;;;;10405320;28;20033;-80
2022/12/27 22:12:58;;;;;;;54.67;23.60;;;2.50;99.90;;;;;;10405294;28;20103;-80
2022/12/27 22:17:58;;;;;;;39.03;19.30;;;2.60;99.90;;;;;;10405997;28;20103;-79
2022/12/27 22:22:59;;;;;;;35.63;17.77;;;2.50;99.90;;;;;;10405325;28;20688;-79
2022/12/27 22:27:59;;;;;;;34.97;17.20;;;2.50;99.90;;;;;;10403884;28;20500;-79
2022/12/27 22:33:00;;;;;;;35.53;17.53;;;2.50;99.90;;;;;;10403967;28;20091;-79
2022/12/27 22:38:00;;;;;;;37.83;18.77;;;2.50;99.90;;;;;;10405125;28;20025;-80
2022/12/27 22:43:01;;;;;;;39.80;19.43;;;2.60;99.90;;;;;;10404453;28;20044;-79
2022/12/27 22:48:02;;;;;;;49.17;21.67;;;2.60;99.90;;;;;;10403738;28;20041;-79
2022/12/27 22:53:02;;;;;;;43.80;21.03;;;2.60;99.90;;;;;;10403618;28;20055;-79
2022/12/27 22:58:03;;;;;;;47.00;21.17;;;2.70;99.90;;;;;;10408143;28;20120;-79
2022/12/27 23:03:03;;;;;;;44.77;19.70;;;2.60;99.90;;;;;;10402553;28;20124;-79
2022/12/27 23:08:04;;;;;;;48.27;22.50;;;2.70;99.90;;;;;;10403370;28;20041;-79
2022/12/27 23:13:04;;;;;;;48.37;21.93;;;2.70;99.90;;;;;;10401603;28;20061;-80
2022/12/27 23:18:05;;;;;;;52.00;23.13;;;2.70;99.90;;;;;;10393506;28;20033;-78
2022/12/27 23:23:05;;;;;;;51.93;23.17;;;2.60;99.90;;;;;;10400870;28;20029;-79
2022/12/27 23:28:06;;;;;;;35.80;17.57;;;2.60;99.90;;;;;;10417887;28;20032;-79
2022/12/27 23:33:07;;;;;;;39.83;21.20;;;2.60;99.90;;;;;;10410108;28;20045;-79
2022/12/27 23:38:08;;;;;;;45.67;20.17;;;2.60;99.90;;;;;;10410128;28;20044;-79
2022/12/27 23:43:08;;;;;;;63.50;25.67;;;2.60;99.90;;;;;;10421332;28;20037;-79
2022/12/27 23:48:09;;;;;;;53.20;23.70;;;2.50;99.90;;;;;;10405860;28;20108;-79
2022/12/27 23:53:09;;;;;;;46.20;21.80;;;2.40;99.90;;;;;;10411524;28;20112;-80
2022/12/27 23:58:10;;;;;;;45.20;20.37;;;2.40;99.90;;;;;;10410005;28;20068;-79
